Time;durP1;ratioP1;P1;durP2;ratioP2;P2;SDS_P1;SDS_P2;PMS_P1;PMS_P2;Temp;Humidity;BMP_temperature;BMP_pressure;BME280_temperature;BME280_humidity;BME280_pressure;Samples;Min_cycle;Max_cycle;Signal;HPM_P1;HPM_P2
2023/01/24 00:04:15;;;;;;;8.73;4.18;;;;;;;;;;10424959;28;20025;-72
2023/01/24 00:09:15;;;;;;;9.85;4.45;;;;;;;;;;10423492;28;20020;-72
2023/01/24 00:14:15;;;;;;;9.70;4.63;;;;;;;;;;10424571;28;20574;-72
2023/01/24 00:19:15;;;;;;;12.88;4.75;;;;;;;;;;10424316;28;20028;-75
2023/01/24 00:24:16;;;;;;;8.50;4.57;;;;;;;;;;10423370;28;20024;-72
2023/01/24 00:29:16;;;;;;;8.40;4.82;;;;;;;;;;10424188;28;20678;-73
2023/01/24 00:34:16;;;;;;;10.48;5.07;;;;;;;;;;10424258;28;20540;-73
2023/01/24 00:39:16;;;;;;;7.60;5.05;;;;;;;;;;10424041;28;20808;-78
2023/01/24 00:44:17;;;;;;;11.52;4.65;;;;;;;;;;10441484;28;20009;-81
2023/01/24 00:49:17;;;;;;;8.68;4.75;;;;;;;;;;10424429;28;20056;-71
2023/01/24 00:54:17;;;;;;;9.80;5.05;;;;;;;;;;10407514;28;20019;-72
2023/01/24 00:59:17;;;;;;;10.63;5.53;;;;;;;;;;10423460;28;20152;-74
2023/01/24 01:04:18;;;;;;;7.90;5.00;;;;;;;;;;10445140;28;20490;-79
2023/01/24 01:09:18;;;;;;;10.15;4.47;;;;;;;;;;10423391;28;20267;-79
2023/01/24 01:14:18;;;;;;;10.93;4.28;;;;;;;;;;10422597;28;20017;-73
2023/01/24 01:19:18;;;;;;;12.20;5.28;;;;;;;;;;10423343;28;20104;-74
2023/01/24 01:24:19;;;;;;;10.50;4.93;;;;;;;;;;10388370;28;20021;-78
2023/01/24 01:29:19;;;;;;;10.63;4.57;;;;;;;;;;10419587;28;20550;-73
2023/01/24 01:34:19;;;;;;;11.98;5.28;;;;;;;;;;10430332;28;20423;-73
2023/01/24 01:39:20;;;;;;;13.37;5.27;;;;;;;;;;10428738;28;20563;-73
2023/01/24 01:49:53;;;;;;;12.10;5.32;;;;;;;;;;10448267;28;20506;-73
2023/01/24 01:54:57;;;;;;;10.40;4.68;;;;;;;;;;10425280;28;20511;-76
2023/01/24 02:00:01;;;;;;;10.35;5.15;;;;;;;;;;10406242;28;20029;-78
2023/01/24 02:05:06;;;;;;;13.18;4.75;;;;;;;;;;10429800;28;20044;-73
2023/01/24 02:10:06;;;;;;;9.93;4.53;;;;;;;;;;10430072;28;20020;-75
2023/01/24 02:20:37;;;;;;;9.77;5.35;;;;;;;;;;10431917;28;20751;-70
2023/01/24 02:25:38;;;;;;;11.10;5.07;;;;;;;;;;10429900;28;20079;-73
2023/01/24 02:30:38;;;;;;;10.20;4.23;;;;;;;;;;10427257;28;20186;-78
2023/01/24 02:35:38;;;;;;;7.18;4.28;;;;;;;;;;10427721;28;20088;-72
2023/01/24 02:40:39;;;;;;;7.77;3.97;;;;;;;;;;10436191;28;20021;-74
2023/01/24 02:45:39;;;;;;;7.25;4.18;;;;;;;;;;10432636;28;20020;-70
2023/01/24 03:01:19;;;;;;;7.05;4.75;;;;;;;;;;10423167;28;20049;-76
2023/01/24 03:06:20;;;;;;;8.27;3.88;;;;;;;;;;10427869;28;20107;-74
2023/01/24 03:11:20;;;;;;;8.85;3.17;;;;;;;;;;10427801;28;20048;-73
2023/01/24 03:42:55;;;;;;;7.38;4.25;;;;;;;;;;10431843;28;20033;-71
2023/01/24 03:47:57;;;;;;;6.95;5.00;;;;;;;;;;10383601;28;20026;-70
2023/01/24 03:52:57;;;;;;;6.95;4.03;;;;;;;;;;10423130;28;20410;-75
2023/01/24 03:57:58;;;;;;;9.10;4.50;;;;;;;;;;10426311;28;20021;-77
2023/01/24 04:02:58;;;;;;;7.63;4.38;;;;;;;;;;10425775;28;20028;-73
2023/01/24 04:07:58;;;;;;;6.20;4.03;;;;;;;;;;10425866;28;20494;-77
2023/01/24 04:12:59;;;;;;;5.10;3.10;;;;;;;;;;10426049;28;20044;-74
2023/01/24 04:18:00;;;;;;;8.00;3.88;;;;;;;;;;10445000;28;20401;-71
2023/01/24 04:23:01;;;;;;;9.15;4.53;;;;;;;;;;10418333;28;20124;-79
2023/01/24 04:28:02;;;;;;;8.77;5.32;;;;;;;;;;10418589;28;20049;-77
2023/01/24 04:33:03;;;;;;;8.15;4.97;;;;;;;;;;10424568;28;20049;-74
2023/01/24 04:38:03;;;;;;;7.60;4.57;;;;;;;;;;10424032;28;20454;-77
2023/01/24 04:43:03;;;;;;;4.25;3.03;;;;;;;;;;10399944;28;20021;-75
2023/01/24 04:48:04;;;;;;;8.48;4.78;;;;;;;;;;10431619;28;20450;-76
2023/01/24 04:53:04;;;;;;;14.90;7.50;;;;;;;;;;10412885;28;20021;-73
2023/01/24 04:58:04;;;;;;;8.32;5.18;;;;;;;;;;10401003;28;20038;-74
2023/01/24 05:03:05;;;;;;;9.57;5.30;;;;;;;;;;10397045;28;20486;-73
2023/01/24 05:08:05;;;;;;;10.70;5.35;;;;;;;;;;10449821;28;20570;-74
2023/01/24 05:13:06;;;;;;;9.90;5.93;;;;;;;;;;10447822;28;20029;-75
2023/01/24 05:18:06;;;;;;;9.63;5.15;;;;;;;;;;10420478;28;20032;-73
2023/01/24 05:23:06;;;;;;;9.38;5.28;;;;;;;;;;10431712;28;20843;-76
2023/01/24 05:28:09;;;;;;;13.98;7.28;;;;;;;;;;10414099;28;20017;-76
2023/01/24 05:33:10;;;;;;;10.30;6.75;;;;;;;;;;10427685;28;20454;-76
2023/01/24 05:38:10;;;;;;;12.32;7.15;;;;;;;;;;10430918;28;20047;-73
2023/01/24 05:43:11;;;;;;;13.25;7.72;;;;;;;;;;10428694;28;20432;-76
2023/01/24 05:48:11;;;;;;;11.52;5.18;;;;;;;;;;10430952;28;20187;-76
2023/01/24 05:53:11;;;;;;;15.40;6.77;;;;;;;;;;10431250;28;20477;-73
2023/01/24 05:58:11;;;;;;;12.55;6.63;;;;;;;;;;10432450;28;20605;-76
2023/01/24 06:03:12;;;;;;;9.80;5.47;;;;;;;;;;10410614;28;20620;-79
2023/01/24 06:08:12;;;;;;;11.02;5.78;;;;;;;;;;10403870;28;20029;-75
2023/01/24 06:13:13;;;;;;;10.02;5.13;;;;;;;;;;10447005;28;20021;-76
2023/01/24 06:18:14;;;;;;;9.15;5.18;;;;;;;;;;10435024;28;20020;-75
2023/01/24 06:23:22;;;;;;;16.13;6.30;;;;;;;;;;10440267;28;20499;-73
2023/01/24 06:28:23;;;;;;;10.40;5.63;;;;;;;;;;10434565;28;20031;-73
2023/01/24 06:33:33;;;;;;;12.35;5.15;;;;;;;;;;10458280;28;20053;-75
2023/01/24 06:38:34;;;;;;;10.52;5.22;;;;;;;;;;10445805;28;20017;-72
2023/01/24 06:43:34;;;;;;;11.80;5.82;;;;;;;;;;10451077;28;20028;-79
2023/01/24 06:48:34;;;;;;;15.13;5.23;;;;;;;;;;10469503;22;20132;-73
2023/01/24 06:53:34;;;;;;;8.80;5.03;;;;;;;;;;10466272;28;20267;-72
2023/01/24 06:58:35;;;;;;;9.40;4.40;;;;;;;;;;10473716;28;20021;-76
2023/01/24 07:03:36;;;;;;;12.73;4.32;;;;;;;;;;10466498;28;20044;-77
2023/01/24 07:08:36;;;;;;;12.15;5.18;;;;;;;;;;10475106;28;20024;-76
2023/01/24 07:13:36;;;;;;;10.68;4.68;;;;;;;;;;10471887;28;20093;-76
2023/01/24 07:18:36;;;;;;;8.75;5.38;;;;;;;;;;10465934;28;20045;-75
2023/01/24 07:23:37;;;;;;;12.77;5.63;;;;;;;;;;10489990;22;20138;-75
2023/01/24 07:28:37;;;;;;;8.07;4.87;;;;;;;;;;10528196;28;20290;-76
2023/01/24 07:33:38;;;;;;;10.60;5.38;;;;;;;;;;10495208;28;20270;-72
2023/01/24 07:38:38;;;;;;;10.05;5.10;;;;;;;;;;10507580;28;20020;-75
2023/01/24 07:43:38;;;;;;;12.82;5.38;;;;;;;;;;10536615;22;20053;-79
2023/01/24 07:48:38;;;;;;;14.07;4.83;;;;;;;;;;10525254;28;20032;-75
2023/01/24 07:53:39;;;;;;;10.82;4.82;;;;;;;;;;10506265;28;20036;-70
2023/01/24 07:58:39;;;;;;;9.65;4.68;;;;;;;;;;10503227;28;20028;-76
2023/01/24 08:03:39;;;;;;;5.80;3.17;;;;;;;;;;10524775;28;20498;-73
2023/01/24 08:08:39;;;;;;;5.03;2.40;;;;;;;;;;10498007;28;20913;-76
2023/01/24 08:13:40;;;;;;;6.00;2.97;;;;;;;;;;10524999;28;20024;-76
2023/01/24 08:18:41;;;;;;;6.70;2.88;;;;;;;;;;10505703;28;20024;-77
2023/01/24 08:23:41;;;;;;;6.25;3.70;;;;;;;;;;10523940;28;20035;-73
2023/01/24 08:28:41;;;;;;;4.70;3.05;;;;;;;;;;10472288;28;20017;-72
2023/01/24 08:33:42;;;;;;;9.98;3.83;;;;;;;;;;10454433;28;20023;-78
2023/01/24 08:38:42;;;;;;;9.77;3.67;;;;;;;;;;10475726;28;20699;-79
2023/01/24 08:43:42;;;;;;;14.07;4.70;;;;;;;;;;10473219;28;20481;-73
2023/01/24 08:48:42;;;;;;;8.40;3.97;;;;;;;;;;10462974;28;20402;-71
2023/01/24 08:53:43;;;;;;;11.90;4.65;;;;;;;;;;10468671;28;20176;-77
2023/01/24 08:58:43;;;;;;;7.50;3.08;;;;;;;;;;10476080;28;20028;-73
2023/01/24 09:03:43;;;;;;;6.20;4.27;;;;;;;;;;10467829;28;20532;-74
2023/01/24 09:08:43;;;;;;;7.63;4.07;;;;;;;;;;10451105;28;20085;-74
2023/01/24 09:13:45;;;;;;;10.85;4.90;;;;;;;;;;10478695;28;20051;-75
2023/01/24 09:18:45;;;;;;;7.40;3.67;;;;;;;;;;10467461;28;20081;-76
2023/01/24 09:23:45;;;;;;;6.95;3.58;;;;;;;;;;10457217;28;20605;-75
2023/01/24 09:28:46;;;;;;;7.20;4.18;;;;;;;;;;10472435;28;20025;-80
2023/01/24 09:33:46;;;;;;;5.22;3.10;;;;;;;;;;10462941;28;20036;-76
2023/01/24 09:38:46;;;;;;;7.03;3.40;;;;;;;;;;10475750;28;20111;-75
2023/01/24 09:44:00;;;;;;;9.60;3.00;;;;;;;;;;10494127;28;20583;-72
2023/01/24 09:49:13;;;;;;;4.38;2.60;;;;;;;;;;10487347;28;20125;-75
2023/01/24 09:54:24;;;;;;;6.88;3.28;;;;;;;;;;10469710;28;20085;-73
2023/01/24 09:59:43;;;;;;;4.47;3.05;;;;;;;;;;10442044;28;20020;-77
2023/01/24 10:04:45;;;;;;;7.05;2.55;;;;;;;;;;10484350;28;20417;-76
2023/01/24 10:09:51;;;;;;;5.70;2.72;;;;;;;;;;10463315;28;20025;-75
2023/01/24 10:14:52;;;;;;;3.65;2.70;;;;;;;;;;10462829;28;20649;-77
2023/01/24 10:20:11;;;;;;;3.10;1.73;;;;;;;;;;10446652;28;20112;-70
2023/01/24 10:25:18;;;;;;;3.15;1.75;;;;;;;;;;10468554;28;20446;-71
2023/01/24 10:30:21;;;;;;;3.25;1.63;;;;;;;;;;10471279;28;20107;-75
2023/01/24 10:35:26;;;;;;;2.58;1.60;;;;;;;;;;10469811;28;20020;-70
2023/01/24 10:40:26;;;;;;;2.03;1.30;;;;;;;;;;10470235;28;20033;-74
2023/01/24 10:45:33;;;;;;;3.45;1.40;;;;;;;;;;10469791;28;20505;-73
2023/01/24 10:50:41;;;;;;;1.45;1.15;;;;;;;;;;10470814;28;20040;-79
2023/01/24 10:55:41;;;;;;;4.55;1.85;;;;;;;;;;10468858;28;20020;-72
2023/01/24 11:00:43;;;;;;;2.97;1.40;;;;;;;;;;10469596;28;20047;-74
2023/01/24 11:05:46;;;;;;;5.38;1.40;;;;;;;;;;10487273;28;20266;-77
2023/01/24 11:10:49;;;;;;;1.58;1.30;;;;;;;;;;10460911;28;20070;-70
2023/01/24 11:15:52;;;;;;;4.43;1.48;;;;;;;;;;10469298;28;20021;-77
2023/01/24 11:21:07;;;;;;;3.70;1.60;;;;;;;;;;10468306;28;20501;-78
2023/01/24 11:26:21;;;;;;;2.22;1.40;;;;;;;;;;10468026;28;20016;-74
2023/01/24 11:31:28;;;;;;;4.18;2.33;;;;;;;;;;10467710;28;20028;-72
2023/01/24 11:36:31;;;;;;;5.50;3.20;;;;;;;;;;10455998;28;20049;-72
2023/01/24 11:41:35;;;;;;;2.47;1.80;;;;;;;;;;10439820;28;20487;-76
2023/01/24 11:46:48;;;;;;;8.52;2.47;;;;;;;;;;10460636;28;20084;-74
2023/01/24 11:52:20;;;;;;;3.58;1.90;;;;;;;;;;10479255;28;20538;-77
2023/01/24 11:57:51;;;;;;;3.92;2.58;;;;;;;;;;10483699;28;20022;-72
2023/01/24 12:03:06;;;;;;;6.10;4.03;;;;;;;;;;10471221;28;20044;-70
2023/01/24 12:08:18;;;;;;;8.50;3.20;;;;;;;;;;10465645;28;20028;-75
2023/01/24 12:13:29;;;;;;;4.65;2.55;;;;;;;;;;10467444;28;20029;-73
2023/01/24 12:18:49;;;;;;;2.15;1.55;;;;;;;;;;10466406;28;20028;-75
2023/01/24 12:24:22;;;;;;;5.18;1.70;;;;;;;;;;10452861;28;20036;-74
2023/01/24 12:29:48;;;;;;;2.58;1.55;;;;;;;;;;10422120;28;20029;-78
2023/01/24 12:34:48;;;;;;;3.55;2.03;;;;;;;;;;10466724;28;20051;-77
2023/01/24 12:39:59;;;;;;;3.38;1.30;;;;;;;;;;10465397;28;20467;-76
2023/01/24 12:45:02;;;;;;;2.42;1.55;;;;;;;;;;10450841;28;20044;-73
2023/01/24 12:50:31;;;;;;;3.97;2.17;;;;;;;;;;10468996;28;20126;-74
2023/01/24 12:55:35;;;;;;;2.35;1.20;;;;;;;;;;10451949;28;20469;-76
2023/01/24 13:00:50;;;;;;;3.95;2.13;;;;;;;;;;10462747;28;20044;-73
2023/01/24 13:05:53;;;;;;;3.47;2.35;;;;;;;;;;10446810;28;20462;-73
2023/01/24 13:11:09;;;;;;;6.50;1.85;;;;;;;;;;10439855;28;20119;-72
2023/01/24 13:16:42;;;;;;;5.85;2.17;;;;;;;;;;10476654;28;20092;-73
2023/01/24 13:21:48;;;;;;;2.38;2.00;;;;;;;;;;10466492;28;20124;-77
2023/01/24 13:26:48;;;;;;;3.85;2.30;;;;;;;;;;10461542;28;20036;-77
2023/01/24 13:31:57;;;;;;;1.90;1.80;;;;;;;;;;10470937;28;20020;-74
2023/01/24 13:36:58;;;;;;;3.60;1.90;;;;;;;;;;10457424;28;20556;-80
2023/01/24 13:42:24;;;;;;;3.72;2.20;;;;;;;;;;10465186;28;20036;-74
2023/01/24 13:47:33;;;;;;;1.85;1.40;;;;;;;;;;10463359;28;20392;-77
2023/01/24 13:52:33;;;;;;;3.55;2.28;;;;;;;;;;10473495;28;20415;-72
2023/01/24 13:57:35;;;;;;;2.67;2.25;;;;;;;;;;10486767;28;20028;-76
2023/01/24 14:02:40;;;;;;;3.45;2.70;;;;;;;;;;10489239;28;20028;-78
2023/01/24 14:07:41;;;;;;;3.72;2.25;;;;;;;;;;10470043;28;20028;-77
2023/01/24 14:12:51;;;;;;;3.53;2.28;;;;;;;;;;10483623;28;20033;-77
2023/01/24 14:17:51;;;;;;;3.90;2.13;;;;;;;;;;10467566;28;20031;-77
2023/01/24 14:22:54;;;;;;;4.65;2.63;;;;;;;;;;10483451;28;20055;-71
2023/01/24 14:27:58;;;;;;;4.20;2.00;;;;;;;;;;10474085;28;20066;-71
2023/01/24 14:33:04;;;;;;;5.38;2.17;;;;;;;;;;10476462;28;20032;-75
2023/01/24 14:38:13;;;;;;;2.97;2.10;;;;;;;;;;10464468;28;20074;-76
2023/01/24 14:43:13;;;;;;;3.75;2.63;;;;;;;;;;10471323;28;20036;-72
2023/01/24 14:48:16;;;;;;;3.40;2.20;;;;;;;;;;10480561;28;20028;-72
2023/01/24 14:53:30;;;;;;;2.42;2.22;;;;;;;;;;10476101;28;20143;-71
2023/01/24 14:58:30;;;;;;;4.45;2.45;;;;;;;;;;10472786;28;20020;-75
2023/01/24 15:03:35;;;;;;;2.72;1.98;;;;;;;;;;10472621;28;20024;-78
2023/01/24 15:08:35;;;;;;;4.85;2.38;;;;;;;;;;10470631;28;20017;-75
2023/01/24 15:13:42;;;;;;;3.53;1.80;;;;;;;;;;10462932;28;20029;-75
2023/01/24 15:18:47;;;;;;;4.03;2.05;;;;;;;;;;10459682;28;20032;-76
2023/01/24 15:23:49;;;;;;;6.40;2.97;;;;;;;;;;10451476;28;20036;-72
2023/01/24 15:28:50;;;;;;;9.27;2.50;;;;;;;;;;10463466;28;20028;-72
2023/01/24 15:34:13;;;;;;;5.80;2.55;;;;;;;;;;10461050;28;20024;-74
2023/01/24 15:39:15;;;;;;;5.15;2.72;;;;;;;;;;10452226;28;20416;-77
2023/01/24 15:44:16;;;;;;;3.80;2.58;;;;;;;;;;10461514;28;20108;-75
2023/01/24 15:49:21;;;;;;;8.63;3.72;;;;;;;;;;10481869;28;20028;-71
2023/01/24 15:54:26;;;;;;;9.80;4.43;;;;;;;;;;10452495;28;20562;-70
2023/01/24 15:59:27;;;;;;;8.55;4.10;;;;;;;;;;10461023;28;20917;-77
2023/01/24 16:04:27;;;;;;;10.98;4.22;;;;;;;;;;10452106;28;20077;-75
2023/01/24 16:09:27;;;;;;;7.00;4.78;;;;;;;;;;10441204;28;20028;-72
2023/01/24 16:14:29;;;;;;;12.70;5.67;;;;;;;;;;10465944;28;20051;-71
2023/01/24 16:19:29;;;;;;;11.90;5.75;;;;;;;;;;10483298;28;20021;-73
2023/01/24 16:24:29;;;;;;;11.80;6.57;;;;;;;;;;10466104;28;20032;-74
2023/01/24 16:29:30;;;;;;;11.00;5.65;;;;;;;;;;10470489;28;20077;-73
2023/01/24 16:34:30;;;;;;;10.07;5.72;;;;;;;;;;10478663;28;20024;-76
2023/01/24 16:39:33;;;;;;;13.13;7.28;;;;;;;;;;10447767;28;20132;-71
2023/01/24 16:44:34;;;;;;;17.05;7.65;;;;;;;;;;10465247;28;20747;-76
2023/01/24 16:49:39;;;;;;;19.15;7.47;;;;;;;;;;10522649;28;20536;-72
2023/01/24 16:54:40;;;;;;;11.30;5.67;;;;;;;;;;10505770;28;20008;-73
2023/01/24 16:59:40;;;;;;;11.85;5.32;;;;;;;;;;10506581;28;20016;-75
2023/01/24 17:04:40;;;;;;;18.13;6.30;;;;;;;;;;10527358;28;20062;-78
2023/01/24 17:09:41;;;;;;;11.90;6.80;;;;;;;;;;10522670;28;20042;-73
2023/01/24 17:14:42;;;;;;;13.88;6.95;;;;;;;;;;10506024;28;20133;-72
2023/01/24 17:19:42;;;;;;;15.68;6.57;;;;;;;;;;10494709;28;20398;-75
2023/01/24 17:24:43;;;;;;;13.70;4.88;;;;;;;;;;10505412;28;20020;-77
2023/01/24 17:29:43;;;;;;;8.43;4.82;;;;;;;;;;10484195;28;20019;-75
2023/01/24 17:34:44;;;;;;;15.70;4.10;;;;;;;;;;10517762;28;20028;-76
2023/01/24 17:39:44;;;;;;;8.95;4.25;;;;;;;;;;10503476;28;20656;-76
2023/01/24 17:44:44;;;;;;;7.32;4.07;;;;;;;;;;10502937;28;20055;-73
2023/01/24 17:49:45;;;;;;;10.85;4.95;;;;;;;;;;10523457;28;20417;-76
2023/01/24 17:54:45;;;;;;;5.80;3.22;;;;;;;;;;10504062;28;20078;-78
2023/01/24 17:59:45;;;;;;;6.05;2.97;;;;;;;;;;10503811;28;20042;-73
2023/01/24 18:04:45;;;;;;;4.95;2.83;;;;;;;;;;10504304;28;20039;-72
2023/01/24 18:09:46;;;;;;;5.38;3.17;;;;;;;;;;10498527;22;20107;-72
2023/01/24 18:14:46;;;;;;;6.32;3.70;;;;;;;;;;10437098;28;20032;-71
2023/01/24 18:19:46;;;;;;;5.65;3.50;;;;;;;;;;10424596;28;20324;-75
2023/01/24 18:24:47;;;;;;;7.13;3.83;;;;;;;;;;10442679;28;20040;-76
2023/01/24 18:29:47;;;;;;;5.75;3.55;;;;;;;;;;10465521;28;20033;-70
2023/01/24 18:34:48;;;;;;;10.48;3.85;;;;;;;;;;10464718;28;20036;-75
2023/01/24 18:39:48;;;;;;;7.00;3.80;;;;;;;;;;10453933;28;20032;-76
2023/01/24 18:44:48;;;;;;;6.82;4.05;;;;;;;;;;10465960;28;20036;-79
2023/01/24 18:49:48;;;;;;;8.43;4.03;;;;;;;;;;10467088;28;20028;-73
2023/01/24 18:54:49;;;;;;;6.97;4.07;;;;;;;;;;10471341;28;20119;-72
2023/01/24 18:59:49;;;;;;;8.38;2.95;;;;;;;;;;10568132;23;20068;-71
2023/01/24 19:04:49;;;;;;;6.90;3.60;;;;;;;;;;10467263;28;20026;-80
2023/01/24 19:09:50;;;;;;;8.57;4.22;;;;;;;;;;10477257;28;20110;-73
2023/01/24 19:14:50;;;;;;;7.28;3.33;;;;;;;;;;10475452;28;20138;-74
2023/01/24 19:19:52;;;;;;;11.30;3.97;;;;;;;;;;10494535;28;20035;-73
2023/01/24 19:24:52;;;;;;;5.10;3.63;;;;;;;;;;10482962;28;20060;-73
2023/01/24 19:29:52;;;;;;;7.53;4.25;;;;;;;;;;10478839;28;20162;-76
2023/01/24 19:34:53;;;;;;;6.40;3.50;;;;;;;;;;10477650;28;20047;-75
2023/01/24 19:39:53;;;;;;;8.77;3.75;;;;;;;;;;10478112;28;20023;-77
2023/01/24 19:44:53;;;;;;;11.90;3.80;;;;;;;;;;10473704;28;20032;-72
2023/01/24 19:49:53;;;;;;;7.95;4.03;;;;;;;;;;10472676;28;20032;-72
2023/01/24 19:54:54;;;;;;;9.30;5.10;;;;;;;;;;10477875;28;20016;-73
2023/01/24 19:59:54;;;;;;;6.63;4.18;;;;;;;;;;10469105;28;20467;-74
2023/01/24 20:04:54;;;;;;;11.88;4.93;;;;;;;;;;10468703;28;20411;-74
2023/01/24 20:09:54;;;;;;;12.23;6.55;;;;;;;;;;10461298;28;20075;-71
2023/01/24 20:14:55;;;;;;;9.27;5.20;;;;;;;;;;10468395;28;20068;-74
2023/01/24 20:19:55;;;;;;;9.65;5.97;;;;;;;;;;10465326;28;20013;-73
2023/01/24 20:24:55;;;;;;;11.35;5.60;;;;;;;;;;10465053;28;20108;-75
2023/01/24 20:29:56;;;;;;;10.38;6.03;;;;;;;;;;10461303;28;20016;-76
2023/01/24 20:34:56;;;;;;;11.50;6.05;;;;;;;;;;10445852;28;20012;-75
2023/01/24 20:39:57;;;;;;;10.73;5.40;;;;;;;;;;10480869;28;20025;-76
2023/01/24 20:44:57;;;;;;;11.43;5.30;;;;;;;;;;10446490;28;20024;-72
2023/01/24 20:49:58;;;;;;;10.77;5.65;;;;;;;;;;10436601;28;20628;-72
2023/01/24 20:54:58;;;;;;;16.27;6.07;;;;;;;;;;10473467;28;20147;-77
2023/01/24 20:59:58;;;;;;;16.75;6.30;;;;;;;;;;10463996;28;20607;-76
2023/01/24 21:04:59;;;;;;;13.65;6.13;;;;;;;;;;10462732;28;20135;-75
2023/01/24 21:09:59;;;;;;;11.23;4.90;;;;;;;;;;10470026;28;20551;-73
2023/01/24 21:15:00;;;;;;;11.55;5.70;;;;;;;;;;10466096;28;20028;-75
2023/01/24 21:20:00;;;;;;;8.93;4.20;;;;;;;;;;10475054;28;20449;-79
2023/01/24 21:25:00;;;;;;;8.30;4.50;;;;;;;;;;10471671;28;20411;-75
2023/01/24 21:30:01;;;;;;;6.68;3.85;;;;;;;;;;10450568;28;20020;-78
2023/01/24 21:35:01;;;;;;;8.48;4.75;;;;;;;;;;10461267;28;20020;-78
2023/01/24 21:40:01;;;;;;;9.88;5.10;;;;;;;;;;10465051;28;20035;-72
2023/01/24 21:45:02;;;;;;;11.10;5.70;;;;;;;;;;10469772;28;20023;-78
2023/01/24 21:50:03;;;;;;;11.23;5.85;;;;;;;;;;10467142;28;20027;-73
2023/01/24 21:55:03;;;;;;;12.93;6.17;;;;;;;;;;10470268;28;20017;-73
2023/01/24 22:00:05;;;;;;;7.25;4.43;;;;;;;;;;10463586;28;20749;-77
2023/01/24 22:05:05;;;;;;;10.25;4.72;;;;;;;;;;10468115;28;20100;-77
2023/01/24 22:10:06;;;;;;;8.73;4.37;;;;;;;;;;10485319;28;20441;-75
2023/01/24 22:15:07;;;;;;;10.35;4.95;;;;;;;;;;10468658;28;20019;-76
2023/01/24 22:20:13;;;;;;;9.38;4.93;;;;;;;;;;10468921;28;20024;-78
2023/01/24 22:25:34;;;;;;;11.75;4.45;;;;;;;;;;10466183;28;20044;-73
2023/01/24 22:30:34;;;;;;;9.07;4.80;;;;;;;;;;10466619;28;20024;-77
2023/01/24 22:35:36;;;;;;;7.93;4.32;;;;;;;;;;10468988;28;20082;-78
2023/01/24 22:40:37;;;;;;;11.63;6.28;;;;;;;;;;10466135;28;20063;-79
2023/01/24 22:45:37;;;;;;;10.80;5.60;;;;;;;;;;10470605;28;20103;-77
2023/01/24 22:50:37;;;;;;;9.20;4.40;;;;;;;;;;10473516;28;20029;-76
2023/01/24 22:55:38;;;;;;;10.68;4.35;;;;;;;;;;10468609;28;20441;-74
2023/01/24 23:00:39;;;;;;;9.32;4.90;;;;;;;;;;10469423;28;20055;-76
2023/01/24 23:05:39;;;;;;;6.60;3.63;;;;;;;;;;10468830;28;20108;-76
2023/01/24 23:10:39;;;;;;;9.77;4.10;;;;;;;;;;10467860;28;20032;-72
2023/01/24 23:26:17;;;;;;;7.22;3.90;;;;;;;;;;10485925;28;20029;-77
2023/01/24 23:31:20;;;;;;;8.43;3.73;;;;;;;;;;10467706;28;20032;-75
2023/01/24 23:36:20;;;;;;;8.25;4.25;;;;;;;;;;10468064;28;20036;-79
2023/01/24 23:41:20;;;;;;;12.00;4.05;;;;;;;;;;10467631;28;20028;-80
2023/01/24 23:46:21;;;;;;;8.30;4.40;;;;;;;;;;10467076;28;20129;-76
2023/01/24 23:51:21;;;;;;;7.53;4.75;;;;;;;;;;10467482;28;20028;-74
2023/01/24 23:56:21;;;;;;;7.47;4.70;;;;;;;;;;10467535;28;20347;-73
